createdAt,value
2017-07-05T00:00:02.116Z,80.80
2017-07-05T00:02:30.740Z,81.10
2017-07-05T00:04:59.305Z,81.10
2017-07-05T00:07:28.110Z,81.00
2017-07-05T00:09:56.584Z,81.00
2017-07-05T00:12:25.259Z,80.70
2017-07-05T00:14:53.978Z,81.30
2017-07-05T00:17:22.437Z,80.50
2017-07-05T00:19:50.932Z,80.60
2017-07-05T00:22:20.077Z,81.90
2017-07-05T00:24:48.549Z,80.90
2017-07-05T00:27:17.152Z,81.10
2017-07-05T00:29:45.642Z,81.20
2017-07-05T00:32:14.126Z,80.50
2017-07-05T00:34:42.786Z,81.30
2017-07-05T00:37:11.705Z,80.20
2017-07-05T00:39:40.194Z,81.20
2017-07-05T00:42:09.378Z,81.80
2017-07-05T00:44:37.965Z,81.50
2017-07-05T00:47:06.982Z,81.70
2017-07-05T00:49:35.765Z,81.70
2017-07-05T00:52:04.261Z,82.10
2017-07-05T00:54:32.913Z,81.40
2017-07-05T00:57:01.505Z,82.10
2017-07-05T00:59:30.515Z,82.10
2017-07-05T01:01:59.069Z,81.10
2017-07-05T01:04:27.565Z,81.10
2017-07-05T01:06:56.077Z,81.60
2017-07-05T01:09:25.047Z,82.00
2017-07-05T01:11:53.626Z,82.00
2017-07-05T01:14:22.329Z,82.10
2017-07-05T01:16:50.909Z,82.30
2017-07-05T01:19:19.729Z,82.50
2017-07-05T01:21:48.276Z,82.00
2017-07-05T01:24:16.729Z,82.30
2017-07-05T01:26:45.251Z,82.40
2017-07-05T01:29:13.722Z,82.20
2017-07-05T01:31:42.321Z,82.60
2017-07-05T01:34:10.925Z,82.80
2017-07-05T01:36:39.501Z,82.80
2017-07-05T01:39:08.067Z,82.70
2017-07-05T01:41:37.059Z,83.60
2017-07-05T01:44:05.632Z,84.20
2017-07-05T01:46:34.149Z,84.80
2017-07-05T01:49:02.665Z,84.90
2017-07-05T01:51:31.295Z,85.60
2017-07-05T01:53:59.957Z,87.10
2017-07-05T01:56:28.844Z,88.20
2017-07-05T01:58:57.489Z,89.60
2017-07-05T02:01:26.174Z,90.50
2017-07-05T02:03:54.665Z,90.70
2017-07-05T02:06:23.231Z,91.80
2017-07-05T02:08:52.001Z,92.40
2017-07-05T02:11:20.592Z,93.60
2017-07-05T02:13:49.324Z,94.20
2017-07-05T02:16:17.775Z,94.40
2017-07-05T02:18:46.265Z,94.50
2017-07-05T02:21:14.730Z,94.40
2017-07-05T02:23:43.191Z,95.40
2017-07-05T02:26:11.821Z,95.20
2017-07-05T02:28:40.312Z,95.60
2017-07-05T02:31:09.156Z,95.20
2017-07-05T02:33:37.649Z,95.70
2017-07-05T02:36:06.230Z,96.60
2017-07-05T02:38:34.702Z,96.50
2017-07-05T02:41:03.211Z,95.70
2017-07-05T02:43:31.686Z,95.40
2017-07-05T02:46:00.362Z,95.90
2017-07-05T02:48:28.828Z,96.80
2017-07-05T02:50:57.325Z,96.50
2017-07-05T02:53:26.034Z,96.80
2017-07-05T02:55:55.052Z,96.50
2017-07-05T02:58:23.513Z,96.60
2017-07-05T03:00:51.957Z,97.30
2017-07-05T03:03:20.417Z,96.90
2017-07-05T03:05:48.878Z,96.80
2017-07-05T03:08:17.333Z,96.30
2017-07-05T03:10:45.811Z,97.00
2017-07-05T03:13:14.570Z,95.90
2017-07-05T03:15:43.051Z,96.30
2017-07-05T03:18:11.847Z,96.00
2017-07-05T03:20:40.592Z,96.10
2017-07-05T03:23:09.081Z,94.70
2017-07-05T03:25:37.525Z,96.10
2017-07-05T03:28:06.013Z,96.00
2017-07-05T03:30:34.668Z,95.90
2017-07-05T03:33:03.149Z,97.00
2017-07-05T03:35:31.717Z,96.90
2017-07-05T03:38:00.995Z,97.10
2017-07-05T03:40:29.750Z,97.00
2017-07-05T03:42:58.721Z,96.90
2017-07-05T03:45:27.183Z,97.20
2017-07-05T03:47:56.689Z,98.30
2017-07-05T03:50:25.242Z,98.30
2017-07-05T03:52:53.788Z,97.80
2017-07-05T03:55:22.483Z,97.50
2017-07-05T03:57:50.929Z,97.60
2017-07-05T04:00:19.484Z,97.10
2017-07-05T04:02:48.197Z,97.20
2017-07-05T04:05:17.394Z,98.60
2017-07-05T04:07:47.047Z,98.40
2017-07-05T04:10:15.614Z,98.40
2017-07-05T04:12:44.122Z,98.20
2017-07-05T04:15:12.890Z,98.00
2017-07-05T04:17:41.521Z,98.10
2017-07-05T04:20:10.014Z,97.80
2017-07-05T04:22:38.502Z,97.80
2017-07-05T04:25:07.189Z,97.20
2017-07-05T04:27:36.596Z,98.00
2017-07-05T04:30:05.093Z,97.90
2017-07-05T04:32:33.865Z,97.80
2017-07-05T04:35:02.319Z,97.60
2017-07-05T04:37:30.805Z,97.70
2017-07-05T04:39:59.464Z,98.20
2017-07-05T04:42:28.109Z,97.20
2017-07-05T04:44:57.343Z,97.50
2017-07-05T04:47:25.870Z,97.50
2017-07-05T04:49:54.453Z,97.50
2017-07-05T04:52:23.053Z,97.10
2017-07-05T04:54:51.751Z,97.20
2017-07-05T04:57:21.971Z,97.30
2017-07-05T04:59:51.338Z,96.90
2017-07-05T05:02:19.860Z,96.90
2017-07-05T05:04:48.388Z,96.30
2017-07-05T05:07:16.879Z,97.00
2017-07-05T05:09:45.391Z,96.60
2017-07-05T05:12:13.854Z,96.60
2017-07-05T05:14:42.772Z,96.60
2017-07-05T05:17:12.225Z,97.40
2017-07-05T05:19:40.774Z,97.20
2017-07-05T05:22:09.985Z,96.20
2017-07-05T05:24:38.466Z,96.20
2017-07-05T05:27:06.984Z,96.80
2017-07-05T05:29:35.719Z,96.50
2017-07-05T05:32:04.272Z,96.80
2017-07-05T05:34:33.255Z,96.30
2017-07-05T05:37:01.751Z,97.00
2017-07-05T05:39:30.430Z,97.00
2017-07-05T05:41:58.973Z,96.80
2017-07-05T05:44:27.601Z,96.50
2017-07-05T05:46:56.447Z,95.80
2017-07-05T05:49:25.086Z,97.00
2017-07-05T05:51:53.662Z,97.50
2017-07-05T05:54:22.239Z,96.20
2017-07-05T05:56:50.801Z,96.70
2017-07-05T05:59:19.440Z,96.40
2017-07-05T06:01:48.967Z,94.10
2017-07-05T06:04:17.453Z,95.10
2017-07-05T06:06:46.085Z,96.50
2017-07-05T06:09:14.582Z,95.30
2017-07-05T06:11:43.468Z,95.10
2017-07-05T06:14:11.957Z,95.60
2017-07-05T06:16:40.656Z,94.60
2017-07-05T06:19:09.773Z,92.40
2017-07-05T06:21:38.989Z,93.10
2017-07-05T06:24:07.422Z,93.10
2017-07-05T06:26:35.937Z,93.60
2017-07-05T06:29:04.510Z,93.60
2017-07-05T06:31:33.047Z,94.30
2017-07-05T06:34:01.951Z,94.60
2017-07-05T06:36:30.526Z,93.20
2017-07-05T06:38:59.111Z,93.40
2017-07-05T06:41:27.723Z,93.20
2017-07-05T06:43:56.294Z,93.10
2017-07-05T06:46:24.800Z,92.90
2017-07-05T06:48:53.628Z,94.60
2017-07-05T06:51:22.518Z,94.00
2017-07-05T06:53:51.161Z,94.90
2017-07-05T06:56:19.919Z,93.00
2017-07-05T06:58:49.016Z,93.30
2017-07-05T07:01:17.814Z,94.70
2017-07-05T07:03:46.389Z,93.80
2017-07-05T07:06:14.898Z,93.90
2017-07-05T07:08:44.210Z,92.50
2017-07-05T07:11:12.684Z,92.50
2017-07-05T07:13:41.145Z,91.70
2017-07-05T07:16:10.554Z,92.30
2017-07-05T07:18:39.748Z,90.70
2017-07-05T07:21:08.405Z,91.10
2017-07-05T07:23:37.829Z,92.00
2017-07-05T07:26:07.019Z,92.10
2017-07-05T07:28:35.523Z,89.60
2017-07-05T07:31:04.045Z,91.40
2017-07-05T07:33:32.541Z,89.80
2017-07-05T07:36:01.866Z,90.90
2017-07-05T07:38:30.594Z,90.90
2017-07-05T07:40:59.280Z,91.40
2017-07-05T07:43:28.039Z,89.70
2017-07-05T07:45:56.586Z,90.00
2017-07-05T07:48:34.021Z,90.30
2017-07-05T07:51:02.878Z,89.20
2017-07-05T07:53:31.736Z,87.80
2017-07-05T07:56:00.372Z,82.80
2017-07-05T07:58:28.948Z,87.30
2017-07-05T08:00:57.632Z,79.80
2017-07-05T08:03:26.895Z,77.30
2017-07-05T08:05:55.362Z,76.70
2017-07-05T08:08:23.965Z,66.80
2017-07-05T08:10:52.934Z,68.00
2017-07-05T08:13:22.070Z,62.80
2017-07-05T08:15:50.778Z,62.70
2017-07-05T08:18:19.938Z,53.70
2017-07-05T08:20:48.490Z,59.60
2017-07-05T08:23:17.480Z,65.80
2017-07-05T08:25:46.245Z,68.80
2017-07-05T08:28:14.846Z,71.60
2017-07-05T08:30:43.505Z,63.80
2017-07-05T08:33:12.439Z,67.70
2017-07-05T08:35:41.372Z,67.30
2017-07-05T08:38:09.909Z,62.60
2017-07-05T08:40:38.482Z,64.10
2017-07-05T08:43:06.960Z,64.40
2017-07-05T08:45:36.631Z,66.20
2017-07-05T08:48:05.134Z,69.40
2017-07-05T08:50:34.363Z,68.20
2017-07-05T08:53:02.878Z,68.20
2017-07-05T08:55:31.376Z,64.00
2017-07-05T08:58:00.481Z,62.80
2017-07-05T09:00:29.058Z,63.70
2017-07-05T09:02:57.673Z,66.40
2017-07-05T09:05:26.208Z,65.60
2017-07-05T09:07:54.761Z,64.30
2017-07-05T09:10:23.303Z,66.60
2017-07-05T09:12:51.957Z,68.70
2017-07-05T09:15:20.499Z,69.60
2017-07-05T09:17:49.033Z,65.00
2017-07-05T09:20:17.594Z,65.40
2017-07-05T09:22:46.610Z,63.50
2017-07-05T09:25:15.270Z,68.10
2017-07-05T09:27:43.818Z,67.70
2017-07-05T09:30:13.205Z,72.20
2017-07-05T09:32:42.575Z,72.10
2017-07-05T09:35:11.123Z,72.20
2017-07-05T09:37:39.846Z,72.70
2017-07-05T09:40:08.567Z,66.20
2017-07-05T09:42:38.051Z,65.80
2017-07-05T09:45:06.583Z,65.90
2017-07-05T09:47:35.224Z,70.00
2017-07-05T09:50:05.211Z,59.90
2017-07-05T09:52:33.765Z,65.30
2017-07-05T09:55:02.313Z,65.40
2017-07-05T09:57:30.850Z,67.20
2017-07-05T09:59:59.778Z,67.20
2017-07-05T10:02:28.526Z,67.30
2017-07-05T10:04:57.062Z,67.10
2017-07-05T10:07:25.699Z,68.10
2017-07-05T10:09:54.240Z,68.10
2017-07-05T10:12:22.782Z,65.50
2017-07-05T10:14:51.692Z,67.50
2017-07-05T10:17:20.214Z,66.30
2017-07-05T10:19:48.821Z,64.70
2017-07-05T10:22:18.033Z,59.90
2017-07-05T10:24:46.641Z,58.20
2017-07-05T10:27:15.150Z,59.40
2017-07-05T10:29:44.642Z,58.60
2017-07-05T10:32:13.147Z,57.90
2017-07-05T10:34:41.707Z,57.10
2017-07-05T10:37:10.780Z,59.50
2017-07-05T10:39:39.341Z,56.90
2017-07-05T10:42:07.866Z,58.60
2017-07-05T10:44:36.474Z,60.50
2017-07-05T10:47:05.098Z,60.10
2017-07-05T10:49:33.663Z,61.00
2017-07-05T10:52:02.182Z,59.60
2017-07-05T10:54:30.790Z,56.20
2017-07-05T10:56:59.338Z,56.80
2017-07-05T10:59:27.854Z,55.10
2017-07-05T11:01:56.717Z,56.90
2017-07-05T11:04:25.416Z,55.70
2017-07-05T11:06:54.010Z,52.90
2017-07-05T11:09:22.560Z,51.70
2017-07-05T11:11:52.297Z,52.30
2017-07-05T11:14:20.830Z,50.10
2017-07-05T11:16:50.089Z,48.50
2017-07-05T11:19:18.976Z,48.50
2017-07-05T11:21:47.862Z,48.00
2017-07-05T11:24:16.445Z,46.40
2017-07-05T11:26:44.431Z,47.40
2017-07-05T11:29:12.981Z,46.60
2017-07-05T11:31:41.662Z,48.50
2017-07-05T11:34:10.710Z,50.20
2017-07-05T11:36:39.254Z,51.40
2017-07-05T11:39:07.758Z,51.40
2017-07-05T11:41:37.717Z,53.30
2017-07-05T11:44:06.744Z,50.10
2017-07-05T11:46:34.632Z,48.60
2017-07-05T11:49:02.580Z,47.70
2017-07-05T11:51:30.467Z,46.80
2017-07-05T11:53:58.417Z,43.20
2017-07-05T11:56:26.583Z,45.70
2017-07-05T11:58:56.039Z,44.10
2017-07-05T12:01:25.081Z,41.30
2017-07-05T12:03:54.285Z,42.80
2017-07-05T12:06:22.142Z,41.70
2017-07-05T12:08:50.023Z,39.70
2017-07-05T12:11:17.905Z,38.10
2017-07-05T12:15:19.422Z,39.10
2017-07-05T12:17:47.333Z,40.30
2017-07-05T12:20:15.956Z,41.30
2017-07-05T12:22:46.193Z,45.20
2017-07-05T12:25:14.889Z,47.60
2017-07-05T12:27:43.640Z,47.40
2017-07-05T12:30:12.198Z,49.20
2017-07-05T12:32:40.667Z,45.00
2017-07-05T12:35:09.204Z,47.40
2017-07-05T12:37:38.079Z,46.50
2017-07-05T12:40:06.685Z,45.10
2017-07-05T12:42:35.271Z,45.80
2017-07-05T12:45:04.407Z,46.90
2017-07-05T12:47:33.017Z,44.70
2017-07-05T12:50:01.090Z,44.40
2017-07-05T12:52:29.136Z,44.20
2017-07-05T12:54:57.261Z,41.60
2017-07-05T12:57:25.281Z,41.70
2017-07-05T12:59:53.209Z,40.70
2017-07-05T13:02:21.072Z,41.90
2017-07-05T13:04:49.448Z,42.70
2017-07-05T13:07:18.146Z,44.40
2017-07-05T13:09:46.027Z,43.30
2017-07-05T13:12:14.046Z,45.20
2017-07-05T13:14:41.936Z,39.90
2017-07-05T13:17:09.779Z,42.40
2017-07-05T13:19:37.688Z,42.60
2017-07-05T13:22:05.928Z,43.00
2017-07-05T13:24:33.850Z,40.60
2017-07-05T13:27:02.078Z,42.50
2017-07-05T13:29:30.368Z,42.90
2017-07-05T13:31:58.942Z,47.70
2017-07-05T13:34:27.740Z,48.80
2017-07-05T13:36:56.243Z,49.90
2017-07-05T13:39:24.927Z,48.70
2017-07-05T13:41:53.594Z,50.90
2017-07-05T13:44:22.503Z,51.60
2017-07-05T13:46:51.829Z,52.90
2017-07-05T13:49:20.493Z,51.50
2017-07-05T13:51:49.556Z,51.40
2017-07-05T13:54:17.584Z,50.80
2017-07-05T13:56:46.872Z,51.20
2017-07-05T13:59:15.564Z,51.10
2017-07-05T14:01:45.033Z,52.10
2017-07-05T14:04:13.623Z,52.00
2017-07-05T14:06:42.216Z,50.40
2017-07-05T14:09:10.786Z,52.50
2017-07-05T14:11:39.878Z,53.60
2017-07-05T14:14:08.443Z,53.40
2017-07-05T14:16:37.093Z,52.80
2017-07-05T14:19:06.542Z,53.10
2017-07-05T14:21:35.241Z,52.90
2017-07-05T14:24:27.559Z,53.20
2017-07-05T14:26:57.532Z,53.40
2017-07-05T14:29:31.205Z,52.50
2017-07-05T14:31:59.904Z,52.40
2017-07-05T14:34:33.059Z,54.00
2017-07-05T14:37:02.179Z,54.30
2017-07-05T14:39:30.738Z,54.90
2017-07-05T14:41:59.285Z,54.40
2017-07-05T14:44:27.837Z,51.80
2017-07-05T14:46:56.383Z,52.90
2017-07-05T14:49:27.728Z,55.80
2017-07-05T14:51:56.546Z,55.40
2017-07-05T14:54:25.502Z,54.90
2017-07-05T14:56:54.153Z,56.40
2017-07-05T14:59:23.240Z,56.80
2017-07-05T15:01:51.766Z,57.80
2017-07-05T15:04:20.514Z,56.50
2017-07-05T15:06:49.099Z,57.90
2017-07-05T15:09:18.775Z,57.10
2017-07-05T15:11:47.382Z,57.30
2017-07-05T15:14:16.005Z,55.80
2017-07-05T15:16:44.773Z,57.40
2017-07-05T15:19:13.365Z,57.30
2017-07-05T15:21:42.242Z,55.90
2017-07-05T15:24:10.895Z,55.90
2017-07-05T15:26:39.619Z,56.70
2017-07-05T15:29:08.157Z,57.60
2017-07-05T15:31:36.878Z,54.70
2017-07-05T15:34:05.556Z,55.90
2017-07-05T15:36:34.110Z,56.70
2017-07-05T15:39:02.843Z,58.50
2017-07-05T15:41:31.940Z,59.40
2017-07-05T15:44:00.612Z,60.80
2017-07-05T15:46:29.207Z,61.50
2017-07-05T15:48:57.745Z,59.40
2017-07-05T15:52:29.274Z,61.70
2017-07-05T15:54:58.116Z,61.50
2017-07-05T15:57:26.912Z,60.50
2017-07-05T15:59:55.843Z,60.80
2017-07-05T16:02:24.407Z,60.80
2017-07-05T16:04:52.976Z,58.50
2017-07-05T16:07:22.693Z,59.10
2017-07-05T16:09:54.407Z,58.10
2017-07-05T16:12:23.699Z,57.30
2017-07-05T16:14:52.937Z,57.10
2017-07-05T16:17:21.551Z,58.10
2017-07-05T16:19:50.064Z,57.90
2017-07-05T16:22:19.429Z,61.50
2017-07-05T16:24:47.949Z,60.60
2017-07-05T16:27:16.509Z,59.90
2017-07-05T16:29:45.032Z,59.20
2017-07-05T16:32:14.907Z,59.70
2017-07-05T16:34:43.572Z,59.70
2017-07-05T16:37:12.175Z,61.10
2017-07-05T16:39:40.726Z,60.40
2017-07-05T16:42:16.320Z,61.80
2017-07-05T16:44:46.386Z,62.80
2017-07-05T16:47:15.650Z,62.60
2017-07-05T16:49:44.210Z,62.50
2017-07-05T16:52:13.182Z,62.40
2017-07-05T16:54:41.780Z,62.70
2017-07-05T16:57:10.345Z,64.40
2017-07-05T16:59:38.877Z,62.10
2017-07-05T17:02:07.458Z,62.60
2017-07-05T17:04:35.999Z,63.50
2017-07-05T17:07:04.555Z,63.20
2017-07-05T17:09:33.139Z,64.20
2017-07-05T17:12:02.798Z,64.50
2017-07-05T17:14:31.312Z,64.30
2017-07-05T17:17:00.049Z,63.50
2017-07-05T17:19:28.654Z,64.30
2017-07-05T17:22:04.834Z,64.10
2017-07-05T17:24:34.124Z,63.60
2017-07-05T17:27:02.673Z,64.40
2017-07-05T17:29:31.386Z,63.40
2017-07-05T17:31:59.285Z,64.10
2017-07-05T17:34:28.151Z,65.20
2017-07-05T17:36:56.652Z,65.20
2017-07-05T17:39:25.939Z,65.60
2017-07-05T17:41:54.619Z,65.50
2017-07-05T17:44:23.675Z,65.90
2017-07-05T17:46:52.247Z,64.60
2017-07-05T17:49:20.838Z,65.40
2017-07-05T17:51:50.387Z,65.30
2017-07-05T17:54:19.279Z,65.20
2017-07-05T17:56:47.795Z,65.00
2017-07-05T17:59:16.445Z,65.80
2017-07-05T18:01:45.236Z,65.90
2017-07-05T18:04:20.696Z,66.30
2017-07-05T18:06:49.285Z,66.30
2017-07-05T18:09:18.556Z,66.10
2017-07-05T18:12:01.994Z,67.10
2017-07-05T18:14:30.786Z,65.20
2017-07-05T18:16:59.514Z,65.30
2017-07-05T18:19:28.146Z,66.60
2017-07-05T18:21:56.695Z,66.20
2017-07-05T18:24:26.272Z,67.30
2017-07-05T18:27:01.773Z,67.30
2017-07-05T18:29:30.453Z,66.90
2017-07-05T18:31:59.004Z,67.20
2017-07-05T18:34:27.603Z,68.00
2017-07-05T18:36:56.612Z,67.10
2017-07-05T18:39:25.248Z,69.10
2017-07-05T18:41:53.890Z,70.00
2017-07-05T18:44:22.449Z,68.50
2017-07-05T18:46:51.012Z,70.00
2017-07-05T18:49:19.674Z,69.30
2017-07-05T18:51:48.563Z,68.80
2017-07-05T18:54:17.524Z,68.20
2017-07-05T18:56:46.292Z,69.30
2017-07-05T18:59:14.858Z,68.50
2017-07-05T19:01:43.619Z,69.50
2017-07-05T19:04:12.204Z,69.20
2017-07-05T19:06:40.947Z,68.40
2017-07-05T19:09:09.583Z,69.40
2017-07-05T19:11:38.100Z,68.90
2017-07-05T19:14:07.142Z,70.70
2017-07-05T19:16:35.698Z,69.70
2017-07-05T19:19:04.554Z,69.80
2017-07-05T19:21:33.259Z,70.50
2017-07-05T19:24:01.906Z,70.10
2017-07-05T19:26:30.472Z,69.60
2017-07-05T19:28:59.009Z,71.10
2017-07-05T19:31:27.635Z,70.30
2017-07-05T19:33:56.657Z,69.90
2017-07-05T19:36:25.528Z,70.00
2017-07-05T19:38:54.054Z,70.50
2017-07-05T19:41:22.815Z,71.20
2017-07-05T19:43:51.673Z,70.70
2017-07-05T19:46:21.069Z,70.00
2017-07-05T19:48:50.807Z,70.40
2017-07-05T19:51:19.345Z,70.10
2017-07-05T19:53:47.987Z,70.20
2017-07-05T19:56:16.788Z,69.70
2017-07-05T19:58:45.384Z,72.10
2017-07-05T20:01:14.300Z,71.50
2017-07-05T20:03:43.242Z,72.10
2017-07-05T20:06:11.821Z,71.30
2017-07-05T20:08:40.342Z,70.80
2017-07-05T20:11:09.007Z,71.40
2017-07-05T20:13:37.541Z,72.30
2017-07-05T20:16:06.482Z,72.90
2017-07-05T20:18:35.095Z,72.50
2017-07-05T20:21:03.656Z,72.70
2017-07-05T20:23:32.198Z,73.00
2017-07-05T20:26:00.963Z,72.80
2017-07-05T20:28:29.623Z,73.70
2017-07-05T20:30:58.115Z,73.80
2017-07-05T20:33:26.782Z,72.60
2017-07-05T20:35:55.785Z,74.10
2017-07-05T20:38:24.443Z,73.10
2017-07-05T20:40:53.090Z,73.80
2017-07-05T20:43:21.718Z,74.30
2017-07-05T20:45:50.234Z,74.90
2017-07-05T20:48:19.482Z,75.20
2017-07-05T20:50:48.228Z,74.90
2017-07-05T20:53:16.971Z,74.80
2017-07-05T20:55:45.504Z,74.60
2017-07-05T20:58:14.691Z,74.70
2017-07-05T21:00:43.180Z,75.20
2017-07-05T21:03:11.923Z,74.70
2017-07-05T21:05:40.501Z,75.70
2017-07-05T21:08:09.113Z,76.00
2017-07-05T21:10:37.701Z,76.60
2017-07-05T21:13:06.185Z,75.80
2017-07-05T21:15:34.729Z,76.80
2017-07-05T21:18:03.590Z,77.00
2017-07-05T21:20:32.634Z,77.60
2017-07-05T21:23:01.181Z,77.60
2017-07-05T21:25:29.774Z,77.00
2017-07-05T21:27:58.405Z,77.80
2017-07-05T21:30:26.927Z,77.70
2017-07-05T21:32:55.417Z,78.00
2017-07-05T21:35:24.050Z,77.80
2017-07-05T21:37:52.666Z,78.10
2017-07-05T21:40:21.685Z,77.70
2017-07-05T21:42:50.388Z,78.00
2017-07-05T21:45:18.890Z,78.50
2017-07-05T21:47:47.500Z,78.60
2017-07-05T21:50:16.283Z,77.50
2017-07-05T21:52:45.299Z,78.50
2017-07-05T21:55:13.838Z,77.80
2017-07-05T21:57:42.328Z,78.50
2017-07-05T22:00:10.922Z,78.20
2017-07-05T22:02:39.445Z,78.20
2017-07-05T22:05:09.466Z,78.50
2017-07-05T22:07:37.955Z,78.20
2017-07-05T22:10:06.441Z,77.70
2017-07-05T22:12:37.079Z,77.60
2017-07-05T22:15:07.543Z,78.20
2017-07-05T22:17:36.259Z,78.10
2017-07-05T22:20:04.760Z,78.60
2017-07-05T22:22:33.452Z,78.50
2017-07-05T22:25:02.341Z,78.90
2017-07-05T22:27:31.031Z,79.40
2017-07-05T22:30:00.399Z,79.80
2017-07-05T22:32:29.068Z,79.80
2017-07-05T22:34:57.746Z,79.80
2017-07-05T22:37:26.318Z,80.40
2017-07-05T22:39:55.702Z,80.60
2017-07-05T22:42:26.460Z,80.60
2017-07-05T22:44:56.400Z,81.30
2017-07-05T22:47:26.830Z,80.70
2017-07-05T22:49:55.523Z,81.10
2017-07-05T22:52:24.045Z,81.50
2017-07-05T22:54:52.517Z,81.30
2017-07-05T22:57:21.258Z,81.70
2017-07-05T22:59:49.757Z,80.70
2017-07-05T23:02:18.296Z,82.30
2017-07-05T23:04:46.927Z,81.40
2017-07-05T23:07:15.464Z,82.20
2017-07-05T23:09:44.321Z,82.70
2017-07-05T23:12:12.927Z,82.60
2017-07-05T23:14:41.461Z,83.00
2017-07-05T23:17:10.051Z,82.70
2017-07-05T23:19:38.573Z,82.50
2017-07-05T23:22:07.094Z,82.50
2017-07-05T23:24:35.644Z,82.80
2017-07-05T23:27:04.176Z,82.90
2017-07-05T23:29:32.689Z,83.20
2017-07-05T23:32:01.256Z,83.50
2017-07-05T23:34:29.765Z,83.10
2017-07-05T23:36:58.889Z,83.40
2017-07-05T23:39:27.527Z,83.00
2017-07-05T23:41:56.051Z,83.20
2017-07-05T23:44:24.638Z,83.30
2017-07-05T23:46:53.160Z,83.10
2017-07-05T23:49:21.874Z,82.70
2017-07-05T23:51:50.414Z,82.90
2017-07-05T23:54:19.082Z,82.70
2017-07-05T23:56:47.892Z,82.30
2017-07-05T23:59:16.522Z,83.40
